Aviation Digital Data Service (ADDS)

Output produced by METARs form (1811 UTC 19 August 2019)
found at http://www.aviationweather.gov/metar/data/
 
Forecast for: AMD
Text: TAF AMD ETHL 191449Z 1914/1923 26006KT 9999 NSW FEW025 BKN150
Forecast period: 1400 to 2300 UTC 19 August 2019
Forecast type: FROM: standard forecast or significant change
Winds: from the W (260 degrees) at 7 MPH (6 knots; 3.1 m/s)
Visibility: 6 or more miles 10+ km)
Ceiling: 15000 feet AGL
Clouds: few clouds at 2500 feet AGL
broken clouds at 15000 feet AGL
Weather: NSW  (no significant weather)
Text: TEMPO 1914/1923 25012KT 8000 -SHRA FEW020 SCT030TCU
Forecast period: 1400 to 2300 UTC 19 August 2019
Forecast type: TEMPORARY: The following changes expected for less than half the time period
Winds: from the WSW (250 degrees) at 14 MPH (12 knots; 6.2 m/s)
Visibility: 5 miles (8 km)
Ceiling: at least 12,000 feet AGL
Clouds: few clouds at 2000 feet AGL
scattered clouds at 3000 feet AGL
Weather: -SHRA  (light rain showers)
Text: PROB30 1914/1923 VRB15G25KT 4000 TSRA SCT010 BKN020CB CANCEL 1500
Forecast period: 1400 to 2300 UTC 19 August 2019
Forecast type: PROBABLE: 30 percent likelihood of the following during this time
Winds: variable direction winds at 17 MPH (15 knots; 7.7 m/s)
gusting to 29 MPH (25 knots; 12.9 m/s)
Visibility: 2.49 miles (4.01 km)
Ceiling: 2000 feet AGL
Clouds: scattered clouds at 1000 feet AGL
broken clouds at 2000 feet AGL
Weather: TSRA  (rain associated with thunderstorm(s))